createdAt,value
2018-04-13T00:01:20.623Z,13.72
2018-04-13T00:03:47.026Z,13.49
2018-04-13T00:06:13.572Z,13.30
2018-04-13T00:08:40.128Z,13.22
2018-04-13T00:11:06.722Z,12.78
2018-04-13T00:13:33.157Z,12.64
2018-04-13T00:15:59.639Z,12.48
2018-04-13T00:18:26.043Z,12.24
2018-04-13T00:20:52.440Z,12.12
2018-04-13T00:23:18.877Z,12.08
2018-04-13T00:25:46.343Z,12.17
2018-04-13T00:28:12.775Z,12.10
2018-04-13T00:30:39.173Z,11.97
2018-04-13T00:33:05.559Z,11.91
2018-04-13T00:35:32.035Z,11.80
2018-04-13T00:37:58.458Z,11.75
2018-04-13T00:40:24.864Z,12.10
2018-04-13T00:42:51.280Z,12.61
2018-04-13T00:45:17.871Z,12.83
2018-04-13T00:47:44.345Z,12.60
2018-04-13T00:50:10.757Z,12.53
2018-04-13T00:52:37.203Z,12.65
2018-04-13T00:55:03.719Z,12.87
2018-04-13T00:57:30.240Z,12.65
2018-04-13T00:59:56.711Z,12.56
2018-04-13T01:02:23.115Z,12.24
2018-04-13T01:04:49.639Z,11.93
2018-04-13T01:07:16.027Z,12.02
2018-04-13T01:09:42.421Z,11.96
2018-04-13T01:12:08.906Z,11.67
2018-04-13T01:14:35.363Z,11.49
2018-04-13T01:17:01.836Z,11.36
2018-04-13T01:19:28.243Z,11.47
2018-04-13T01:21:54.742Z,11.38
2018-04-13T01:24:21.194Z,11.27
2018-04-13T01:26:47.725Z,11.40
2018-04-13T01:29:14.173Z,11.45
2018-04-13T01:31:40.593Z,11.39
2018-04-13T01:34:07.009Z,11.20
2018-04-13T01:36:33.490Z,11.10
2018-04-13T01:38:59.903Z,10.98
2018-04-13T01:41:26.389Z,10.82
2018-04-13T01:43:52.811Z,10.67
2018-04-13T01:46:19.324Z,10.58
2018-04-13T01:48:45.718Z,10.52
2018-04-13T01:51:12.143Z,10.47
2018-04-13T01:53:38.572Z,10.40
2018-04-13T01:56:05.034Z,10.30
2018-04-13T01:58:31.578Z,10.23
2018-04-13T02:00:57.986Z,10.29
2018-04-13T02:03:24.367Z,10.22
2018-04-13T02:05:50.959Z,10.21
2018-04-13T02:08:17.374Z,10.22
2018-04-13T02:10:43.774Z,10.20
2018-04-13T02:13:10.228Z,10.11
2018-04-13T02:15:36.674Z,10.02
2018-04-13T02:18:03.078Z,9.92
2018-04-13T02:20:29.543Z,9.89
2018-04-13T02:22:55.879Z,9.96
2018-04-13T02:25:22.270Z,9.98
2018-04-13T02:27:48.758Z,9.99
2018-04-13T02:30:15.091Z,10.03
2018-04-13T02:32:41.421Z,9.96
2018-04-13T02:35:07.798Z,9.90
2018-04-13T02:37:34.135Z,9.87
2018-04-13T02:40:00.495Z,9.77
2018-04-13T02:42:26.925Z,9.65
2018-04-13T02:44:54.420Z,9.61
2018-04-13T02:47:20.727Z,9.65
2018-04-13T02:49:47.112Z,9.72
2018-04-13T02:52:13.484Z,9.71
2018-04-13T02:54:39.803Z,9.61
2018-04-13T02:57:07.243Z,9.57
2018-04-13T02:59:33.552Z,9.58
2018-04-13T03:01:59.891Z,9.56
2018-04-13T03:04:26.282Z,9.52
2018-04-13T03:06:52.653Z,9.38
2018-04-13T03:09:19.010Z,9.35
2018-04-13T03:11:45.374Z,9.40
2018-04-13T03:14:11.667Z,9.39
2018-04-13T03:16:39.217Z,9.45
2018-04-13T03:19:05.552Z,9.47
2018-04-13T03:21:32.033Z,9.39
2018-04-13T03:23:58.355Z,9.39
2018-04-13T03:26:24.753Z,9.33
2018-04-13T03:28:51.120Z,9.38
2018-04-13T03:31:17.483Z,9.35
2018-04-13T03:33:43.863Z,9.13
2018-04-13T03:36:10.326Z,8.95
2018-04-13T03:38:36.736Z,8.83
2018-04-13T03:41:03.111Z,8.78
2018-04-13T03:43:29.537Z,8.83
2018-04-13T03:45:56.014Z,8.77
2018-04-13T03:48:22.349Z,8.79
2018-04-13T03:50:48.778Z,8.75
2018-04-13T03:53:15.089Z,8.86
2018-04-13T03:55:41.538Z,8.96
2018-04-13T03:58:07.912Z,8.89
2018-04-13T04:00:34.338Z,9.07
2018-04-13T04:03:00.735Z,9.79
2018-04-13T04:05:27.216Z,9.97
2018-04-13T04:07:53.524Z,10.04
2018-04-13T04:10:19.871Z,10.09
2018-04-13T04:12:46.373Z,10.18
2018-04-13T04:15:12.900Z,10.25
2018-04-13T04:17:39.264Z,10.39
2018-04-13T04:20:18.659Z,10.55
2018-04-13T04:22:57.260Z,10.72
2018-04-13T04:25:35.956Z,11.11
2018-04-13T04:28:03.277Z,11.58
2018-04-13T04:30:29.722Z,11.91
2018-04-13T04:32:56.084Z,12.36
2018-04-13T04:35:22.497Z,12.97
2018-04-13T04:37:48.926Z,13.51
2018-04-13T04:40:15.370Z,14.10
2018-04-13T04:42:41.672Z,14.76
2018-04-13T04:45:08.017Z,15.41
2018-04-13T04:47:34.509Z,15.51
2018-04-13T04:50:00.873Z,15.65
2018-04-13T04:52:27.289Z,15.97
2018-04-13T04:54:53.745Z,16.71
2018-04-13T04:57:20.232Z,17.61
2018-04-13T04:59:46.616Z,17.70
2018-04-13T05:02:13.029Z,17.24
2018-04-13T05:04:39.445Z,16.67
2018-04-13T05:07:05.835Z,17.03
2018-04-13T05:09:32.240Z,17.23
2018-04-13T05:11:58.586Z,17.11
2018-04-13T05:14:24.950Z,17.86
2018-04-13T05:16:51.405Z,17.97
2018-04-13T05:19:17.808Z,17.97
2018-04-13T05:21:44.142Z,17.57
2018-04-13T05:24:10.592Z,17.92
2018-04-13T05:26:37.100Z,18.20
2018-04-13T05:29:03.496Z,18.77
2018-04-13T05:31:29.856Z,19.37
2018-04-13T05:33:56.163Z,19.97
2018-04-13T05:36:22.616Z,19.92
2018-04-13T05:38:48.983Z,20.22
2018-04-13T05:41:15.472Z,20.34
2018-04-13T05:43:41.806Z,19.83
2018-04-13T05:46:08.266Z,19.48
2018-04-13T05:48:34.601Z,19.81
2018-04-13T05:51:01.086Z,20.09
2018-04-13T05:53:27.618Z,19.88
2018-04-13T05:55:54.071Z,19.86
2018-04-13T05:58:20.484Z,19.55
2018-04-13T06:00:46.878Z,18.95
2018-04-13T06:03:13.252Z,19.01
2018-04-13T06:05:39.741Z,18.75
2018-04-13T06:08:06.109Z,18.77
2018-04-13T06:10:32.465Z,19.11
2018-04-13T06:12:58.848Z,19.36
2018-04-13T06:15:25.304Z,18.76
2018-04-13T06:17:51.652Z,19.61
2018-04-13T06:20:18.017Z,19.10
2018-04-13T06:22:44.400Z,19.83
2018-04-13T06:25:10.779Z,19.25
2018-04-13T06:27:37.090Z,19.05
2018-04-13T06:30:03.518Z,18.13
2018-04-13T06:32:29.876Z,18.22
2018-04-13T06:34:56.214Z,18.36
2018-04-13T06:37:22.692Z,18.41
2018-04-13T06:39:49.128Z,18.26
2018-04-13T06:42:15.452Z,18.28
2018-04-13T06:44:41.820Z,18.26
2018-04-13T06:47:08.266Z,18.47
2018-04-13T06:49:34.712Z,18.45
2018-04-13T06:52:01.129Z,18.07
2018-04-13T06:54:27.501Z,18.51
2018-04-13T06:56:54.035Z,18.56
2018-04-13T06:59:20.586Z,18.58
2018-04-13T07:01:47.191Z,19.47
2018-04-13T07:04:13.775Z,19.93
2018-04-13T07:06:40.188Z,19.67
2018-04-13T07:09:06.517Z,19.80
2018-04-13T07:11:32.819Z,19.55
2018-04-13T07:13:59.214Z,19.78
2018-04-13T07:16:25.710Z,19.62
2018-04-13T07:18:52.058Z,19.79
2018-04-13T07:21:18.749Z,19.66
2018-04-13T07:23:45.088Z,19.75
2018-04-13T07:26:11.595Z,20.76
2018-04-13T07:28:37.983Z,20.00
2018-04-13T07:31:04.341Z,19.58
2018-04-13T07:33:30.682Z,20.46
2018-04-13T07:35:57.217Z,19.86
2018-04-13T07:38:23.583Z,20.07
2018-04-13T07:40:49.975Z,20.56
2018-04-13T07:43:16.471Z,20.48
2018-04-13T07:45:42.841Z,20.62
2018-04-13T07:48:09.155Z,20.76
2018-04-13T07:50:35.583Z,20.54
2018-04-13T07:53:01.986Z,20.90
2018-04-13T07:55:28.407Z,21.01
2018-04-13T07:57:54.771Z,21.04
2018-04-13T08:00:21.439Z,21.61
2018-04-13T08:02:47.946Z,21.81
2018-04-13T08:05:14.137Z,21.60
2018-04-13T08:07:40.588Z,21.66
2018-04-13T08:10:06.955Z,21.86
2018-04-13T08:12:33.669Z,22.29
2018-04-13T08:15:00.729Z,22.89
2018-04-13T08:17:27.094Z,22.31
2018-04-13T08:19:53.643Z,22.11
2018-04-13T08:22:19.985Z,21.56
2018-04-13T08:24:46.307Z,22.28
2018-04-13T08:27:12.823Z,22.35
2018-04-13T08:29:39.281Z,22.66
2018-04-13T08:32:05.567Z,22.70
2018-04-13T08:34:31.926Z,22.20
2018-04-13T08:36:58.276Z,22.87
2018-04-13T08:39:24.637Z,23.14
2018-04-13T08:41:51.016Z,23.21
2018-04-13T08:44:17.385Z,23.01
2018-04-13T08:46:43.937Z,23.00
2018-04-13T08:49:10.465Z,23.03
2018-04-13T08:51:36.663Z,23.52
2018-04-13T08:54:03.040Z,24.44
2018-04-13T08:56:29.532Z,23.92
2018-04-13T08:58:55.863Z,23.15
2018-04-13T09:01:22.245Z,23.57
2018-04-13T09:03:48.667Z,24.70
2018-04-13T09:06:15.147Z,24.05
2018-04-13T09:08:41.513Z,23.85
2018-04-13T09:11:07.948Z,24.67
2018-04-13T09:13:34.416Z,24.86
2018-04-13T09:16:00.966Z,25.16
2018-04-13T09:18:27.371Z,26.03
2018-04-13T09:20:53.788Z,25.30
2018-04-13T09:23:20.169Z,24.68
2018-04-13T09:25:46.610Z,24.17
2018-04-13T09:28:12.963Z,23.44
2018-04-13T09:30:39.320Z,23.62
2018-04-13T09:33:05.689Z,24.42
2018-04-13T09:35:32.069Z,24.70
2018-04-13T09:37:58.525Z,24.53
2018-04-13T09:40:25.206Z,24.45
2018-04-13T09:42:51.630Z,25.12
2018-04-13T09:45:18.032Z,25.98
2018-04-13T09:47:44.462Z,26.49
2018-04-13T09:50:10.837Z,26.83
2018-04-13T09:52:37.193Z,25.78
2018-04-13T09:55:03.690Z,25.64
2018-04-13T09:57:30.218Z,26.05
2018-04-13T09:59:56.621Z,25.68
2018-04-13T10:02:25.101Z,25.96
2018-04-13T10:04:55.482Z,26.49
2018-04-13T10:07:22.776Z,27.17
2018-04-13T10:09:49.268Z,27.56
2018-04-13T10:12:15.662Z,27.76
2018-04-13T10:14:42.334Z,28.05
2018-04-13T10:17:09.003Z,26.86
2018-04-13T10:19:35.366Z,27.05
2018-04-13T10:22:01.720Z,27.12
2018-04-13T10:24:28.095Z,26.81
2018-04-13T10:26:54.559Z,27.29
2018-04-13T10:29:20.962Z,27.84
2018-04-13T10:31:47.359Z,27.61
2018-04-13T10:34:13.869Z,27.54
2018-04-13T10:36:40.388Z,27.75
2018-04-13T10:39:06.760Z,27.77
2018-04-13T10:41:33.127Z,27.60
2018-04-13T10:43:59.487Z,27.98
2018-04-13T10:46:26.065Z,27.31
2018-04-13T10:48:52.565Z,27.48
2018-04-13T10:51:18.916Z,27.42
2018-04-13T10:53:45.383Z,27.43
2018-04-13T10:56:11.805Z,26.87
2018-04-13T10:58:38.223Z,27.36
2018-04-13T11:01:04.603Z,27.74
2018-04-13T11:03:31.357Z,27.62
2018-04-13T11:05:57.841Z,27.99
2018-04-13T11:08:24.243Z,27.16
2018-04-13T11:10:50.624Z,27.07
2018-04-13T11:13:16.987Z,27.23
2018-04-13T11:15:43.619Z,26.96
2018-04-13T11:18:09.972Z,27.45
2018-04-13T11:20:36.337Z,27.55
2018-04-13T11:23:02.772Z,27.77
2018-04-13T11:25:29.107Z,27.28
2018-04-13T11:27:55.579Z,27.19
2018-04-13T11:30:22.014Z,26.68
2018-04-13T11:32:48.612Z,26.94
2018-04-13T11:35:14.976Z,27.26
2018-04-13T11:37:41.414Z,27.36
2018-04-13T11:40:07.774Z,27.80
2018-04-13T11:42:34.148Z,28.33
2018-04-13T11:45:00.520Z,27.91
2018-04-13T11:47:27.012Z,27.46
2018-04-13T11:49:53.688Z,27.40
2018-04-13T11:52:20.120Z,27.33
2018-04-13T11:54:46.628Z,27.37
2018-04-13T11:57:13.116Z,27.30
2018-04-13T11:59:40.166Z,27.76
2018-04-13T12:02:06.670Z,27.26
2018-04-13T12:04:33.083Z,27.72
2018-04-13T12:06:59.743Z,27.43
2018-04-13T12:09:26.172Z,27.04
2018-04-13T12:11:52.560Z,26.97
2018-04-13T12:14:19.000Z,26.80
2018-04-13T12:16:45.427Z,26.92
2018-04-13T12:19:12.427Z,26.84
2018-04-13T12:21:39.183Z,26.68
2018-04-13T12:24:05.924Z,27.12
2018-04-13T12:26:32.566Z,27.26
2018-04-13T12:28:59.349Z,26.85
2018-04-13T12:31:26.415Z,26.98
2018-04-13T12:33:52.845Z,26.85
2018-04-13T12:36:19.506Z,26.45
2018-04-13T12:38:45.957Z,26.70
2018-04-13T12:41:12.328Z,27.17
2018-04-13T12:43:38.748Z,27.54
2018-04-13T12:46:05.182Z,27.52
2018-04-13T12:48:31.511Z,26.86
2018-04-13T12:50:58.031Z,27.03
2018-04-13T12:53:24.401Z,27.16
2018-04-13T12:55:51.197Z,27.32
2018-04-13T12:58:17.803Z,27.37
2018-04-13T13:00:44.287Z,27.30
2018-04-13T13:03:10.651Z,27.07
2018-04-13T13:05:37.107Z,26.99
2018-04-13T13:08:03.532Z,27.00
2018-04-13T13:10:30.042Z,26.87
2018-04-13T13:12:56.459Z,26.74
2018-04-13T13:15:22.839Z,26.30
2018-04-13T13:17:49.295Z,26.14
2018-04-13T13:20:15.914Z,26.29
2018-04-13T13:22:42.645Z,26.44
2018-04-13T13:25:09.228Z,26.54
2018-04-13T13:27:35.869Z,26.55
2018-04-13T13:30:02.413Z,26.69
2018-04-13T13:32:29.083Z,26.78
2018-04-13T13:34:55.843Z,26.43
2018-04-13T13:37:22.360Z,26.51
2018-04-13T13:39:48.972Z,26.38
2018-04-13T13:42:16.059Z,26.19
2018-04-13T13:44:42.481Z,26.12
2018-04-13T13:47:09.010Z,25.98
2018-04-13T13:49:35.556Z,25.74
2018-04-13T13:52:02.132Z,25.65
2018-04-13T13:54:28.561Z,25.46
2018-04-13T13:56:55.511Z,25.31
2018-04-13T13:59:21.977Z,25.37
2018-04-13T14:01:48.374Z,25.74
2018-04-13T14:04:15.771Z,25.88
2018-04-13T14:06:42.222Z,26.19
2018-04-13T14:09:08.650Z,26.28
2018-04-13T14:11:35.350Z,25.60
2018-04-13T14:14:01.856Z,25.52
2018-04-13T14:16:28.456Z,25.46
2018-04-13T14:18:54.946Z,25.61
2018-04-13T14:21:21.437Z,25.67
2018-04-13T14:23:47.947Z,25.59
2018-04-13T14:26:14.625Z,25.48
2018-04-13T14:28:41.272Z,25.40
2018-04-13T14:31:08.215Z,25.20
2018-04-13T14:33:34.816Z,25.20
2018-04-13T14:36:01.416Z,25.19
2018-04-13T14:38:28.012Z,25.36
2018-04-13T14:40:54.616Z,25.25
2018-04-13T14:43:21.183Z,25.30
2018-04-13T14:45:47.805Z,25.26
2018-04-13T14:48:14.482Z,25.31
2018-04-13T14:50:41.174Z,25.06
2018-04-13T14:53:07.903Z,25.03
2018-04-13T14:55:34.719Z,24.89
2018-04-13T14:58:01.491Z,24.85
2018-04-13T15:00:28.060Z,24.64
2018-04-13T15:02:54.666Z,24.48
2018-04-13T15:05:21.409Z,24.41
2018-04-13T15:07:48.079Z,24.23
2018-04-13T15:10:14.873Z,24.31
2018-04-13T15:12:41.600Z,24.40
2018-04-13T15:15:08.360Z,24.49
2018-04-13T15:17:35.214Z,24.42
2018-04-13T15:20:01.935Z,24.26
2018-04-13T15:22:28.674Z,24.20
2018-04-13T15:24:55.656Z,24.29
2018-04-13T15:27:22.124Z,24.20
2018-04-13T15:29:48.606Z,24.13
2018-04-13T15:32:15.140Z,23.96
2018-04-13T15:34:41.487Z,23.85
2018-04-13T15:37:07.911Z,23.82
2018-04-13T15:39:34.279Z,23.58
2018-04-13T15:42:00.655Z,23.48
2018-04-13T15:44:27.024Z,23.47
2018-04-13T15:46:54.361Z,23.27
2018-04-13T15:49:21.856Z,22.95
2018-04-13T15:51:48.867Z,22.76
2018-04-13T15:54:15.604Z,22.52
2018-04-13T15:56:42.163Z,22.24
2018-04-13T15:59:08.590Z,21.88
2018-04-13T16:01:35.024Z,21.74
2018-04-13T16:04:01.711Z,21.70
2018-04-13T16:06:28.198Z,21.53
2018-04-13T16:08:54.600Z,21.44
2018-04-13T16:11:21.057Z,21.45
2018-04-13T16:13:47.677Z,21.41
2018-04-13T16:16:14.206Z,21.18
2018-04-13T16:18:40.625Z,20.99
2018-04-13T16:21:07.365Z,20.93
2018-04-13T16:23:33.966Z,20.64
2018-04-13T16:26:00.450Z,20.57
2018-04-13T16:28:26.889Z,20.57
2018-04-13T16:30:53.608Z,20.36
2018-04-13T16:33:20.184Z,20.26
2018-04-13T16:35:47.115Z,20.27
2018-04-13T16:38:14.347Z,20.20
2018-04-13T16:40:42.021Z,20.17
2018-04-13T16:43:08.793Z,20.09
2018-04-13T16:45:38.176Z,19.91
2018-04-13T16:48:06.562Z,19.73
2018-04-13T16:50:35.369Z,19.57
2018-04-13T16:53:02.500Z,19.46
2018-04-13T16:55:29.162Z,19.37
2018-04-13T16:57:57.329Z,19.18
2018-04-13T17:00:23.723Z,19.00
2018-04-13T17:02:51.484Z,18.89
2018-04-13T17:05:18.208Z,18.74
2018-04-13T17:07:44.993Z,18.57
2018-04-13T17:10:13.271Z,18.40
2018-04-13T17:12:40.115Z,18.24
2018-04-13T17:15:06.752Z,18.07
2018-04-13T17:17:33.856Z,17.92
2018-04-13T17:20:00.837Z,17.81
2018-04-13T17:22:27.981Z,17.73
2018-04-13T17:24:54.448Z,17.66
2018-04-13T17:27:21.558Z,17.63
2018-04-13T17:29:48.405Z,17.48
2018-04-13T17:32:15.031Z,17.41
2018-04-13T17:34:41.579Z,17.33
2018-04-13T17:37:08.330Z,17.30
2018-04-13T17:39:34.965Z,17.22
2018-04-13T17:42:01.675Z,17.18
2018-04-13T17:44:28.077Z,17.11
2018-04-13T17:46:54.955Z,17.03
2018-04-13T17:49:21.638Z,16.92
2018-04-13T17:51:48.643Z,16.82
2018-04-13T17:54:16.056Z,16.71
2018-04-13T17:56:43.099Z,16.67
2018-04-13T17:59:10.843Z,16.52
2018-04-13T18:01:38.134Z,16.44
2018-04-13T18:04:05.080Z,16.45
2018-04-13T18:06:33.245Z,16.25
2018-04-13T18:09:00.060Z,16.12
2018-04-13T18:11:27.192Z,16.10
2018-04-13T18:13:54.154Z,16.06
2018-04-13T18:16:22.146Z,15.94
2018-04-13T18:18:50.671Z,15.83
2018-04-13T18:21:18.569Z,15.76
2018-04-13T18:23:46.470Z,15.70
2018-04-13T18:26:12.993Z,15.57
2018-04-13T18:28:39.554Z,15.58
2018-04-13T18:31:06.018Z,15.56
2018-04-13T18:33:33.240Z,15.47
2018-04-13T18:35:59.967Z,15.47
2018-04-13T18:38:26.963Z,15.36
2018-04-13T18:40:55.846Z,15.25
2018-04-13T18:43:22.381Z,15.20
2018-04-13T18:45:48.985Z,15.13
2018-04-13T18:48:16.569Z,15.05
2018-04-13T18:50:43.280Z,15.02
2018-04-13T18:53:11.610Z,14.94
2018-04-13T18:55:38.266Z,14.94
2018-04-13T18:58:05.154Z,14.97
2018-04-13T19:00:31.888Z,15.00
2018-04-13T19:02:59.591Z,14.98
2018-04-13T19:05:27.120Z,14.92
2018-04-13T19:07:55.147Z,15.00
2018-04-13T19:10:23.191Z,14.90
2018-04-13T19:12:50.973Z,14.86
2018-04-13T19:15:18.391Z,14.75
2018-04-13T19:17:46.236Z,14.71
2018-04-13T19:20:13.324Z,14.69
2018-04-13T19:22:41.926Z,14.59
2018-04-13T19:25:11.138Z,14.58
2018-04-13T19:27:39.116Z,14.48
2018-04-13T19:30:07.438Z,14.46
2018-04-13T19:32:34.436Z,14.46
2018-04-13T19:35:01.785Z,14.41
2018-04-13T19:37:28.374Z,14.36
2018-04-13T19:39:55.368Z,14.36
2018-04-13T19:42:21.979Z,14.29
2018-04-13T19:44:48.591Z,14.25
2018-04-13T19:47:16.502Z,14.22
2018-04-13T19:49:43.485Z,14.18
2018-04-13T19:52:10.125Z,14.11
2018-04-13T19:54:36.681Z,14.02
2018-04-13T19:57:03.203Z,14.02
2018-04-13T19:59:29.952Z,13.96
2018-04-13T20:01:56.507Z,13.91
2018-04-13T20:04:24.281Z,13.83
2018-04-13T20:06:51.958Z,13.91
2018-04-13T20:09:19.630Z,13.81
2018-04-13T20:11:46.035Z,13.80
2018-04-13T20:14:23.849Z,13.84
2018-04-13T20:16:50.569Z,13.80
2018-04-13T20:19:17.317Z,13.83
2018-04-13T20:21:44.312Z,13.65
2018-04-13T20:24:10.732Z,13.58
2018-04-13T20:26:37.447Z,13.55
2018-04-13T20:29:04.640Z,13.59
2018-04-13T20:31:31.541Z,13.52
2018-04-13T20:33:57.966Z,13.44
2018-04-13T20:36:24.375Z,13.40
2018-04-13T20:38:51.050Z,13.37
2018-04-13T20:41:18.052Z,13.27
2018-04-13T20:43:44.590Z,13.21
2018-04-13T20:46:11.125Z,13.19
2018-04-13T20:48:37.517Z,13.14
2018-04-13T20:51:04.121Z,13.17
2018-04-13T20:53:30.568Z,13.15
2018-04-13T20:55:58.054Z,13.16
2018-04-13T20:58:24.691Z,13.11
2018-04-13T21:00:51.743Z,13.12
2018-04-13T21:03:18.807Z,13.07
2018-04-13T21:05:45.317Z,12.98
2018-04-13T21:08:11.748Z,12.92
2018-04-13T21:10:38.095Z,12.90
2018-04-13T21:13:04.490Z,12.79
2018-04-13T21:15:31.017Z,12.76
2018-04-13T21:17:57.479Z,12.74
2018-04-13T21:20:23.967Z,12.74
2018-04-13T21:22:50.381Z,12.78
2018-04-13T21:25:16.748Z,12.74
2018-04-13T21:27:43.133Z,12.66
2018-04-13T21:30:09.575Z,12.60
2018-04-13T21:32:35.934Z,12.56
2018-04-13T21:35:02.356Z,12.53
2018-04-13T21:37:28.893Z,12.54
2018-04-13T21:39:55.231Z,12.49
2018-04-13T21:42:21.590Z,12.48
2018-04-13T21:44:47.999Z,12.51
2018-04-13T21:47:14.565Z,12.46
2018-04-13T21:49:40.904Z,12.43
2018-04-13T21:52:07.360Z,12.44
2018-04-13T21:54:33.722Z,12.49
2018-04-13T21:57:00.169Z,12.42
2018-04-13T21:59:26.533Z,12.45
2018-04-13T22:01:52.852Z,12.40
2018-04-13T22:04:19.270Z,12.37
2018-04-13T22:06:45.643Z,12.47
2018-04-13T22:09:11.997Z,12.61
2018-04-13T22:11:38.395Z,12.48
2018-04-13T22:14:17.085Z,12.38
2018-04-13T22:16:43.389Z,12.35
2018-04-13T22:19:09.863Z,12.31
2018-04-13T22:21:36.287Z,12.27
2018-04-13T22:24:02.626Z,12.28
2018-04-13T22:26:29.024Z,12.25
2018-04-13T22:28:55.520Z,12.17
2018-04-13T22:31:21.851Z,12.05
2018-04-13T22:33:48.262Z,12.01
2018-04-13T22:36:14.685Z,11.97
2018-04-13T22:38:41.066Z,11.91
2018-04-13T22:41:07.432Z,11.87
2018-04-13T22:43:33.840Z,11.83
2018-04-13T22:46:00.189Z,11.77
2018-04-13T22:48:26.596Z,11.71
2018-04-13T22:50:52.957Z,11.73
2018-04-13T22:53:19.306Z,11.71
2018-04-13T22:55:45.732Z,11.72
2018-04-13T22:58:12.189Z,11.68
2018-04-13T23:00:38.570Z,11.65
2018-04-13T23:03:04.963Z,11.57
2018-04-13T23:05:31.340Z,11.50
2018-04-13T23:07:57.772Z,11.49
2018-04-13T23:10:24.694Z,11.53
2018-04-13T23:12:51.118Z,11.42
2018-04-13T23:15:17.492Z,11.33
2018-04-13T23:17:43.884Z,11.33
2018-04-13T23:20:10.292Z,11.34
2018-04-13T23:22:38.273Z,11.43
2018-04-13T23:25:04.919Z,11.41
2018-04-13T23:27:31.369Z,11.30
2018-04-13T23:29:57.793Z,11.20
2018-04-13T23:32:24.177Z,11.11
2018-04-13T23:34:50.634Z,11.14
2018-04-13T23:37:17.056Z,11.14
2018-04-13T23:39:43.405Z,11.06
2018-04-13T23:42:09.726Z,11.05
2018-04-13T23:44:36.118Z,11.03
2018-04-13T23:47:02.469Z,11.01
2018-04-13T23:49:28.895Z,10.99
2018-04-13T23:51:55.225Z,10.99
2018-04-13T23:54:21.697Z,10.97
2018-04-13T23:56:48.025Z,10.97
2018-04-13T23:59:14.490Z,10.97
